Time;durP1;ratioP1;P1;durP2;ratioP2;P2;SDS_P1;SDS_P2;PMS_P1;PMS_P2;Temp;Humidity;BMP_temperature;BMP_pressure;BME280_temperature;BME280_humidity;BME280_pressure;Samples;Min_cycle;Max_cycle;Signal;HPM_P1;HPM_P2
2021/07/02 12:05:07;;;;;;;6.03;2.22;;;;;;;;;;5151662;27;20117;-77
2021/07/02 12:07:33;;;;;;;3.03;2.10;;;;;;;;;;5151243;27;20442;-78
2021/07/02 12:09:59;;;;;;;5.68;2.67;;;;;;;;;;5151369;27;20469;-79
2021/07/02 12:12:26;;;;;;;5.47;2.30;;;;;;;;;;5152646;27;20373;-77
2021/07/02 12:14:52;;;;;;;7.82;2.30;;;;;;;;;;5137156;27;20034;-79
2021/07/02 12:17:21;;;;;;;2.47;2.05;;;;;;;;;;5160142;27;20068;-79
2021/07/02 12:19:47;;;;;;;5.78;2.00;;;;;;;;;;5150386;27;20047;-78
2021/07/02 12:22:14;;;;;;;7.60;2.25;;;;;;;;;;5150227;27;20026;-78
2021/07/02 12:24:40;;;;;;;5.97;2.20;;;;;;;;;;5144242;27;20026;-79
2021/07/02 12:27:12;;;;;;;4.68;2.38;;;;;;;;;;5134646;27;20022;-79
2021/07/02 12:29:38;;;;;;;4.70;2.22;;;;;;;;;;5116159;27;20023;-78
2021/07/02 12:33:35;;;;;;;5.22;2.25;;;;;;;;;;5133529;27;20119;-76
2021/07/02 12:36:10;;;;;;;11.15;2.38;;;;;;;;;;5150702;27;20019;-81
2021/07/02 12:38:56;;;;;;;8.07;2.50;;;;;;;;;;5145092;27;20019;-77
2021/07/02 12:41:22;;;;;;;4.63;2.30;;;;;;;;;;5141414;27;20019;-77
2021/07/02 12:43:49;;;;;;;5.85;2.33;;;;;;;;;;5115192;28;20106;-77
2021/07/02 12:46:16;;;;;;;2.78;2.03;;;;;;;;;;5111289;27;20016;-77
2021/07/02 12:48:42;;;;;;;5.90;2.38;;;;;;;;;;5137492;27;20029;-77
2021/07/02 12:51:08;;;;;;;8.77;2.05;;;;;;;;;;5115000;28;20027;-77
2021/07/02 12:56:19;;;;;;;6.50;2.22;;;;;;;;;;5117327;28;20081;-79
2021/07/02 12:58:45;;;;;;;2.33;2.13;;;;;;;;;;5115717;28;20027;-76
2021/07/02 13:01:12;;;;;;;7.07;2.45;;;;;;;;;;5097974;28;20487;-77
2021/07/02 13:03:38;;;;;;;6.38;2.35;;;;;;;;;;5102616;28;20034;-77
2021/07/02 13:06:15;;;;;;;2.45;2.25;;;;;;;;;;5119409;28;20500;-78
2021/07/02 13:08:41;;;;;;;4.28;2.08;;;;;;;;;;5120425;28;20016;-76
2021/07/02 13:11:20;;;;;;;4.88;2.00;;;;;;;;;;5119310;28;20533;-79
2021/07/02 13:13:46;;;;;;;4.10;2.45;;;;;;;;;;5090778;28;20514;-80
2021/07/02 13:16:13;;;;;;;5.40;2.40;;;;;;;;;;5113300;28;20575;-80
2021/07/02 13:18:40;;;;;;;3.88;1.80;;;;;;;;;;5101222;28;20119;-81
2021/07/02 13:21:07;;;;;;;3.85;2.38;;;;;;;;;;5112881;28;20039;-78
2021/07/02 13:23:38;;;;;;;5.05;2.50;;;;;;;;;;5124383;28;20488;-80
2021/07/02 13:26:04;;;;;;;4.75;2.60;;;;;;;;;;5125797;28;20047;-78
2021/07/02 13:28:32;;;;;;;4.95;2.42;;;;;;;;;;5120000;28;20040;-78
2021/07/02 13:30:58;;;;;;;4.43;2.53;;;;;;;;;;5118943;28;20047;-80
2021/07/02 13:33:24;;;;;;;7.80;2.50;;;;;;;;;;5102792;28;20051;-79
2021/07/02 13:35:50;;;;;;;2.45;2.15;;;;;;;;;;5119287;28;20032;-79
2021/07/02 13:38:17;;;;;;;5.03;2.05;;;;;;;;;;5115404;28;20020;-79
2021/07/02 13:40:45;;;;;;;3.28;2.15;;;;;;;;;;5112256;28;20493;-80
2021/07/02 13:43:29;;;;;;;3.42;1.75;;;;;;;;;;5118027;28;20024;-79
2021/07/02 13:46:06;;;;;;;3.00;1.75;;;;;;;;;;5096786;28;20036;-81
2021/07/02 13:48:32;;;;;;;4.28;1.90;;;;;;;;;;5101049;28;20052;-81
2021/07/02 13:50:59;;;;;;;2.65;1.92;;;;;;;;;;5097632;28;20048;-80
2021/07/02 13:53:26;;;;;;;2.85;1.70;;;;;;;;;;5101006;28;20028;-81
2021/07/02 13:55:53;;;;;;;3.47;2.00;;;;;;;;;;5098107;28;20038;-81
2021/07/02 13:58:19;;;;;;;2.33;1.90;;;;;;;;;;5115740;28;20016;-79
2021/07/02 14:00:46;;;;;;;4.70;2.22;;;;;;;;;;5103480;28;20020;-77
2021/07/02 14:03:12;;;;;;;3.50;1.73;;;;;;;;;;5095807;28;20031;-78
2021/07/02 14:05:39;;;;;;;4.30;2.10;;;;;;;;;;5087902;28;20036;-79
2021/07/02 14:08:06;;;;;;;2.30;2.08;;;;;;;;;;5104746;28;20466;-79
2021/07/02 14:10:33;;;;;;;3.83;1.85;;;;;;;;;;5102155;28;20430;-78
2021/07/02 14:12:59;;;;;;;3.63;1.90;;;;;;;;;;5099482;28;20103;-80
2021/07/02 14:15:26;;;;;;;6.63;1.77;;;;;;;;;;5105967;28;20015;-79
2021/07/02 14:17:52;;;;;;;4.53;2.15;;;;;;;;;;5105823;28;20072;-81
2021/07/02 14:20:18;;;;;;;3.05;2.05;;;;;;;;;;5105687;28;20031;-78
2021/07/02 14:23:20;;;;;;;8.95;2.10;;;;;;;;;;5139894;27;20118;-76
2021/07/02 14:25:46;;;;;;;5.03;2.33;;;;;;;;;;5111178;27;20466;-76
2021/07/02 14:28:12;;;;;;;5.15;2.25;;;;;;;;;;5124208;28;20036;-75
2021/07/02 14:30:38;;;;;;;2.58;1.70;;;;;;;;;;5123741;28;20076;-76
2021/07/02 14:33:04;;;;;;;3.95;1.90;;;;;;;;;;5127064;27;20435;-77
2021/07/02 14:35:30;;;;;;;3.45;1.83;;;;;;;;;;5125677;28;20023;-76
2021/07/02 14:37:57;;;;;;;4.53;2.00;;;;;;;;;;5123781;28;20026;-75
2021/07/02 14:40:23;;;;;;;3.67;1.90;;;;;;;;;;5111130;28;20023;-76
2021/07/02 14:42:49;;;;;;;6.57;2.00;;;;;;;;;;5128285;28;20019;-77
2021/07/02 14:45:15;;;;;;;2.20;1.80;;;;;;;;;;5128572;28;20047;-77
2021/07/02 14:47:41;;;;;;;5.18;2.00;;;;;;;;;;5119113;28;20027;-75
2021/07/02 14:50:08;;;;;;;9.65;2.10;;;;;;;;;;5120439;27;20019;-76
2021/07/02 14:52:34;;;;;;;3.92;2.05;;;;;;;;;;5113913;28;20119;-76
2021/07/02 14:55:00;;;;;;;3.35;1.70;;;;;;;;;;5101202;28;20028;-76
2021/07/02 14:57:27;;;;;;;4.13;1.90;;;;;;;;;;5095296;28;20029;-78
2021/07/02 14:59:53;;;;;;;4.72;1.90;;;;;;;;;;5108078;28;20494;-77
2021/07/02 15:02:19;;;;;;;2.28;2.05;;;;;;;;;;5095371;28;20062;-75
2021/07/02 15:04:45;;;;;;;2.08;1.88;;;;;;;;;;5091096;28;20031;-76
2021/07/02 15:07:12;;;;;;;10.45;2.28;;;;;;;;;;5107856;28;20391;-76
2021/07/02 15:09:38;;;;;;;3.17;1.90;;;;;;;;;;5107805;28;20044;-74
2021/07/02 15:12:04;;;;;;;4.13;2.13;;;;;;;;;;5101260;28;20028;-78
2021/07/02 15:14:30;;;;;;;3.22;1.73;;;;;;;;;;5105956;28;20114;-76
2021/07/02 15:16:58;;;;;;;2.17;1.48;;;;;;;;;;5106639;28;20077;-77
2021/07/02 15:19:24;;;;;;;4.07;1.70;;;;;;;;;;5094963;28;20124;-76
2021/07/02 15:21:50;;;;;;;1.45;1.35;;;;;;;;;;5100087;28;20040;-76
2021/07/02 15:24:16;;;;;;;10.98;1.85;;;;;;;;;;5114554;28;20031;-75
2021/07/02 15:26:42;;;;;;;3.85;1.83;;;;;;;;;;5095501;28;20115;-78
2021/07/02 15:29:09;;;;;;;3.58;1.80;;;;;;;;;;5100322;28;20032;-77
2021/07/02 15:31:53;;;;;;;2.17;1.60;;;;;;;;;;5104404;28;20024;-79
2021/07/02 15:34:20;;;;;;;2.20;1.38;;;;;;;;;;5098886;28;20031;-79
2021/07/02 15:36:46;;;;;;;9.15;1.90;;;;;;;;;;5096463;28;20538;-79
2021/07/02 15:39:12;;;;;;;4.72;1.80;;;;;;;;;;5083307;28;20104;-79
2021/07/02 15:41:38;;;;;;;3.15;1.60;;;;;;;;;;5096710;28;20402;-79
2021/07/02 15:44:04;;;;;;;3.05;1.63;;;;;;;;;;5097345;28;20024;-79
2021/07/02 15:46:32;;;;;;;2.42;1.35;;;;;;;;;;5097022;28;20092;-79
2021/07/02 15:48:58;;;;;;;2.88;1.60;;;;;;;;;;5097509;28;20024;-79
2021/07/02 15:51:24;;;;;;;1.92;1.52;;;;;;;;;;5097445;28;20499;-79
2021/07/02 15:53:51;;;;;;;4.00;1.90;;;;;;;;;;5095675;28;20040;-79
2021/07/02 15:56:17;;;;;;;4.80;1.67;;;;;;;;;;5096621;28;20024;-79
2021/07/02 15:58:44;;;;;;;2.55;1.48;;;;;;;;;;5096927;28;20024;-79
2021/07/02 16:01:10;;;;;;;4.18;1.48;;;;;;;;;;5092825;28;20028;-79
2021/07/02 16:03:36;;;;;;;6.18;1.70;;;;;;;;;;5077240;28;20021;-80
2021/07/02 16:06:02;;;;;;;1.98;1.60;;;;;;;;;;5079451;28;20024;-80
2021/07/02 16:08:28;;;;;;;4.00;1.95;;;;;;;;;;5097769;28;20032;-79
2021/07/02 16:10:54;;;;;;;2.30;1.70;;;;;;;;;;5097703;28;20024;-80
2021/07/02 16:13:20;;;;;;;2.72;1.80;;;;;;;;;;5097692;28;20030;-80
2021/07/02 16:15:47;;;;;;;2.63;1.70;;;;;;;;;;5097841;28;20023;-79
2021/07/02 16:18:14;;;;;;;3.28;1.50;;;;;;;;;;5097890;28;20559;-79
2021/07/02 16:20:42;;;;;;;3.80;1.42;;;;;;;;;;5096991;28;20093;-77
2021/07/02 16:23:08;;;;;;;4.13;1.42;;;;;;;;;;5096446;28;20047;-79
2021/07/02 16:25:34;;;;;;;4.40;1.90;;;;;;;;;;5095294;28;20020;-79
2021/07/02 16:28:04;;;;;;;4.45;1.50;;;;;;;;;;5081084;28;20024;-79
2021/07/02 16:30:31;;;;;;;3.70;1.75;;;;;;;;;;5087752;28;20441;-78
2021/07/02 16:32:57;;;;;;;4.15;1.80;;;;;;;;;;5094983;28;20028;-79
2021/07/02 16:35:24;;;;;;;2.80;1.50;;;;;;;;;;5096481;28;20020;-78
2021/07/02 16:37:50;;;;;;;2.10;1.52;;;;;;;;;;5085862;28;20024;-79
2021/07/02 16:40:16;;;;;;;5.95;1.65;;;;;;;;;;5081284;28;20032;-79
2021/07/02 16:42:42;;;;;;;5.63;1.60;;;;;;;;;;5102856;28;20027;-79
2021/07/02 16:45:11;;;;;;;6.93;1.42;;;;;;;;;;5081277;28;20024;-79
2021/07/02 16:47:37;;;;;;;6.75;1.85;;;;;;;;;;5084069;28;20024;-79
2021/07/02 16:50:04;;;;;;;4.95;2.00;;;;;;;;;;5086402;28;20021;-79
2021/07/02 16:52:30;;;;;;;5.88;1.83;;;;;;;;;;5086743;28;20055;-78
2021/07/02 16:54:56;;;;;;;3.05;1.80;;;;;;;;;;5085919;28;20049;-79
2021/07/02 16:57:23;;;;;;;4.72;1.80;;;;;;;;;;5084631;28;20027;-79
2021/07/02 16:59:49;;;;;;;4.55;1.98;;;;;;;;;;5085731;28;20124;-79
2021/07/02 17:02:18;;;;;;;3.78;2.03;;;;;;;;;;5086008;28;20063;-79
2021/07/02 17:04:45;;;;;;;6.65;2.20;;;;;;;;;;5088181;28;20016;-79
2021/07/02 17:07:11;;;;;;;4.22;2.03;;;;;;;;;;5086433;28;20024;-79
2021/07/02 17:09:37;;;;;;;2.80;1.75;;;;;;;;;;5085282;28;20125;-79
2021/07/02 17:12:03;;;;;;;5.68;1.90;;;;;;;;;;5084980;28;20027;-79
2021/07/02 17:14:29;;;;;;;7.28;1.95;;;;;;;;;;5086573;28;20055;-79
2021/07/02 17:16:55;;;;;;;2.58;1.90;;;;;;;;;;5086927;28;20052;-79
2021/07/02 17:19:22;;;;;;;9.48;2.30;;;;;;;;;;5082692;28;20028;-79
2021/07/02 17:21:48;;;;;;;2.63;1.95;;;;;;;;;;5084591;28;20035;-79
2021/07/02 17:24:14;;;;;;;2.55;2.03;;;;;;;;;;5095125;28;20036;-79
2021/07/02 17:26:40;;;;;;;2.35;1.98;;;;;;;;;;5118056;27;20048;-79
2021/07/02 17:29:06;;;;;;;8.07;2.88;;;;;;;;;;5088660;28;20012;-79
2021/07/02 17:31:32;;;;;;;3.15;2.53;;;;;;;;;;5083487;28;20097;-79
2021/07/02 17:33:58;;;;;;;5.35;2.30;;;;;;;;;;5085024;28;20023;-79
2021/07/02 17:36:25;;;;;;;3.40;2.83;;;;;;;;;;5086858;28;20024;-79
2021/07/02 17:38:52;;;;;;;8.32;2.53;;;;;;;;;;5082524;28;20051;-79
2021/07/02 17:41:18;;;;;;;3.08;1.92;;;;;;;;;;5086933;28;20059;-79
2021/07/02 17:43:44;;;;;;;3.53;2.20;;;;;;;;;;5121604;27;20016;-79
2021/07/02 17:46:10;;;;;;;5.82;2.35;;;;;;;;;;5086797;28;20396;-79
2021/07/02 17:48:36;;;;;;;4.38;1.92;;;;;;;;;;5085335;28;20038;-79
2021/07/02 17:51:03;;;;;;;3.72;2.10;;;;;;;;;;5086989;28;20020;-79
2021/07/02 17:53:29;;;;;;;4.18;2.17;;;;;;;;;;5086029;28;20149;-79
2021/07/02 17:55:59;;;;;;;3.78;2.25;;;;;;;;;;5084534;28;20078;-79
2021/07/02 17:58:26;;;;;;;2.30;2.08;;;;;;;;;;5082313;28;20016;-79
2021/07/02 18:00:52;;;;;;;6.10;2.78;;;;;;;;;;5083936;28;20054;-79
2021/07/02 18:03:18;;;;;;;3.60;2.60;;;;;;;;;;5085809;28;20108;-79
2021/07/02 18:05:44;;;;;;;3.67;2.70;;;;;;;;;;5088754;28;20044;-79
2021/07/02 18:08:10;;;;;;;3.72;2.53;;;;;;;;;;5085504;28;20050;-79
2021/07/02 18:10:36;;;;;;;5.70;2.60;;;;;;;;;;5086210;28;20114;-79
2021/07/02 18:13:02;;;;;;;6.03;4.03;;;;;;;;;;5086059;28;20514;-79
2021/07/02 18:15:29;;;;;;;3.40;2.70;;;;;;;;;;5084383;28;20024;-79
2021/07/02 18:17:57;;;;;;;5.95;2.88;;;;;;;;;;5085681;28;20405;-79
2021/07/02 18:20:23;;;;;;;3.13;2.67;;;;;;;;;;5083765;28;20036;-79
2021/07/02 18:22:49;;;;;;;4.25;2.95;;;;;;;;;;5061893;28;20067;-79
2021/07/02 18:25:17;;;;;;;6.43;3.55;;;;;;;;;;5080071;28;20020;-79
2021/07/02 18:27:44;;;;;;;7.35;5.72;;;;;;;;;;5079871;28;20021;-79
2021/07/02 18:30:10;;;;;;;12.30;10.27;;;;;;;;;;5078887;28;20463;-78
2021/07/02 18:32:39;;;;;;;9.25;8.05;;;;;;;;;;5075880;28;20095;-78
2021/07/02 18:35:06;;;;;;;12.63;8.95;;;;;;;;;;5057734;28;20116;-79
2021/07/02 18:37:32;;;;;;;7.45;6.30;;;;;;;;;;5081065;28;20028;-78
2021/07/02 18:39:58;;;;;;;7.97;5.70;;;;;;;;;;5078328;28;20028;-79
2021/07/02 18:42:24;;;;;;;5.78;4.63;;;;;;;;;;5074061;28;20077;-78
2021/07/02 18:44:50;;;;;;;5.72;4.47;;;;;;;;;;5076745;28;20025;-79
2021/07/02 18:47:17;;;;;;;4.18;3.60;;;;;;;;;;5078638;28;20024;-78
2021/07/02 18:49:43;;;;;;;5.90;4.13;;;;;;;;;;5078047;28;20025;-78
2021/07/02 18:52:09;;;;;;;5.28;4.13;;;;;;;;;;5081170;28;20079;-79
2021/07/02 18:54:35;;;;;;;4.75;3.70;;;;;;;;;;5075385;28;20032;-79
2021/07/02 18:57:01;;;;;;;5.43;3.78;;;;;;;;;;5060885;28;20025;-79
2021/07/02 18:59:27;;;;;;;4.55;3.88;;;;;;;;;;5053848;28;20035;-79
2021/07/02 19:01:53;;;;;;;5.85;4.07;;;;;;;;;;5073499;28;20035;-79
2021/07/02 19:04:19;;;;;;;4.30;3.90;;;;;;;;;;5072501;28;20456;-79
2021/07/02 19:06:47;;;;;;;4.00;3.53;;;;;;;;;;5072290;28;20043;-79
2021/07/02 19:09:14;;;;;;;5.25;4.00;;;;;;;;;;5079688;28;20527;-78
2021/07/02 19:11:40;;;;;;;4.50;3.92;;;;;;;;;;5078328;28;20024;-78
2021/07/02 19:14:06;;;;;;;5.38;3.88;;;;;;;;;;5080071;28;20554;-79
2021/07/02 19:16:35;;;;;;;4.43;3.45;;;;;;;;;;5062978;28;20020;-79
2021/07/02 19:19:03;;;;;;;5.25;3.42;;;;;;;;;;5063366;28;20090;-78
2021/07/02 19:21:29;;;;;;;4.20;2.95;;;;;;;;;;5081490;28;20040;-79
2021/07/02 19:23:55;;;;;;;5.30;3.53;;;;;;;;;;5075626;28;20062;-79
2021/07/02 19:26:21;;;;;;;3.22;2.90;;;;;;;;;;5076822;28;20024;-79
2021/07/02 19:28:47;;;;;;;5.30;3.20;;;;;;;;;;5096837;28;20022;-79
2021/07/02 19:31:13;;;;;;;3.70;3.00;;;;;;;;;;5062046;28;20111;-80
2021/07/02 19:33:39;;;;;;;3.35;2.85;;;;;;;;;;5066477;28;20016;-79
2021/07/02 19:36:06;;;;;;;3.88;3.28;;;;;;;;;;5097109;28;20016;-79
2021/07/02 19:38:32;;;;;;;3.42;3.13;;;;;;;;;;5066484;28;20133;-79
2021/07/02 19:41:04;;;;;;;3.50;3.03;;;;;;;;;;5097938;28;20027;-79
2021/07/02 19:43:30;;;;;;;3.80;3.15;;;;;;;;;;5067116;28;20040;-79
2021/07/02 19:45:56;;;;;;;3.35;2.95;;;;;;;;;;5097472;28;20115;-79
2021/07/02 19:48:22;;;;;;;5.78;3.92;;;;;;;;;;5098114;28;20028;-80
2021/07/02 19:50:49;;;;;;;3.42;2.70;;;;;;;;;;5097935;28;20557;-80
2021/07/02 19:53:15;;;;;;;3.80;3.00;;;;;;;;;;5097646;28;20098;-80
2021/07/02 19:55:42;;;;;;;4.10;2.75;;;;;;;;;;5097301;28;20052;-79
2021/07/02 19:58:08;;;;;;;5.00;2.72;;;;;;;;;;5098186;28;20020;-81
2021/07/02 20:00:34;;;;;;;3.97;3.15;;;;;;;;;;5101438;28;20028;-79
2021/07/02 20:03:00;;;;;;;2.60;2.25;;;;;;;;;;5100055;28;20069;-79
2021/07/02 20:05:26;;;;;;;4.70;2.80;;;;;;;;;;5097692;28;20048;-79
2021/07/02 20:07:53;;;;;;;4.38;2.83;;;;;;;;;;5097905;28;20536;-79
2021/07/02 20:10:19;;;;;;;3.42;2.35;;;;;;;;;;5073604;28;20501;-79
2021/07/02 20:12:48;;;;;;;3.85;2.70;;;;;;;;;;5071812;28;20047;-79
2021/07/02 20:15:15;;;;;;;3.65;2.83;;;;;;;;;;5096787;28;20038;-79
2021/07/02 20:17:41;;;;;;;5.13;2.67;;;;;;;;;;5096529;28;20047;-79
2021/07/02 20:20:08;;;;;;;3.08;2.78;;;;;;;;;;5072229;28;20177;-79
2021/07/02 20:22:37;;;;;;;3.03;2.72;;;;;;;;;;5095148;28;20048;-79
2021/07/02 20:25:04;;;;;;;2.97;2.60;;;;;;;;;;5069267;28;20027;-79
2021/07/02 20:27:31;;;;;;;5.25;3.10;;;;;;;;;;5092918;28;20478;-78
2021/07/02 20:29:57;;;;;;;4.47;2.45;;;;;;;;;;5095585;28;20031;-79
2021/07/02 20:32:23;;;;;;;2.58;2.35;;;;;;;;;;5094967;28;20028;-78
2021/07/02 20:34:49;;;;;;;2.08;1.95;;;;;;;;;;5094442;28;20086;-79
2021/07/02 20:37:15;;;;;;;3.40;2.47;;;;;;;;;;5066789;28;20047;-78
2021/07/02 20:39:41;;;;;;;6.30;3.08;;;;;;;;;;5095067;28;20020;-79
2021/07/02 20:42:07;;;;;;;3.45;2.60;;;;;;;;;;5071392;28;20027;-78
2021/07/02 20:44:33;;;;;;;2.78;2.35;;;;;;;;;;5095009;28;20095;-78
2021/07/02 20:47:00;;;;;;;2.80;2.50;;;;;;;;;;5095053;28;20023;-78
2021/07/02 20:49:26;;;;;;;5.57;2.33;;;;;;;;;;5095271;28;20020;-78
2021/07/02 20:51:52;;;;;;;2.67;2.17;;;;;;;;;;5095544;28;20098;-78
2021/07/02 20:54:18;;;;;;;5.43;2.35;;;;;;;;;;5094897;28;20032;-79
2021/07/02 20:56:44;;;;;;;2.42;2.22;;;;;;;;;;5095383;28;20027;-79
2021/07/02 20:59:11;;;;;;;2.65;2.38;;;;;;;;;;5092663;28;20173;-79
2021/07/02 21:01:37;;;;;;;2.88;2.20;;;;;;;;;;5096123;28;20399;-78
2021/07/02 21:04:04;;;;;;;2.72;2.42;;;;;;;;;;5093917;28;20020;-78
2021/07/02 21:06:30;;;;;;;4.05;2.50;;;;;;;;;;5094122;28;20502;-78
2021/07/02 21:08:56;;;;;;;4.22;2.25;;;;;;;;;;5067398;28;20106;-78
2021/07/02 21:11:22;;;;;;;3.75;2.40;;;;;;;;;;5093467;28;20035;-78
2021/07/02 21:13:48;;;;;;;2.95;2.30;;;;;;;;;;5093742;28;20030;-78
2021/07/02 21:16:14;;;;;;;3.05;2.67;;;;;;;;;;5093898;28;20487;-78
2021/07/02 21:18:40;;;;;;;3.78;2.70;;;;;;;;;;5067086;28;20075;-78
2021/07/02 21:21:08;;;;;;;3.38;2.40;;;;;;;;;;5066108;28;20028;-78
2021/07/02 21:23:34;;;;;;;3.28;2.80;;;;;;;;;;5066964;28;20028;-78
2021/07/02 21:26:00;;;;;;;3.55;2.58;;;;;;;;;;5092911;28;20103;-78
2021/07/02 21:28:27;;;;;;;3.80;2.83;;;;;;;;;;5093898;28;20065;-78
2021/07/02 21:30:54;;;;;;;3.63;2.97;;;;;;;;;;5098109;28;20386;-78
2021/07/02 21:33:20;;;;;;;3.95;2.85;;;;;;;;;;5093910;28;20408;-78
2021/07/02 21:35:46;;;;;;;4.28;3.00;;;;;;;;;;5092989;28;20093;-78
2021/07/02 21:38:13;;;;;;;4.43;3.00;;;;;;;;;;5092821;28;20109;-78
2021/07/02 21:40:39;;;;;;;3.83;2.97;;;;;;;;;;5093297;28;20047;-78
2021/07/02 21:43:05;;;;;;;4.07;2.88;;;;;;;;;;5066906;28;20074;-78
2021/07/02 21:45:31;;;;;;;3.50;2.78;;;;;;;;;;5092964;28;20596;-78
2021/07/02 21:48:00;;;;;;;3.00;2.70;;;;;;;;;;5093105;28;20016;-78
2021/07/02 21:50:26;;;;;;;2.60;2.40;;;;;;;;;;5100132;28;20036;-78
2021/07/02 21:52:53;;;;;;;4.05;2.70;;;;;;;;;;5093542;28;20036;-78
2021/07/02 21:55:19;;;;;;;2.78;2.47;;;;;;;;;;5093719;28;20027;-78
2021/07/02 21:57:45;;;;;;;3.80;2.85;;;;;;;;;;5069918;28;20024;-78
2021/07/02 22:00:13;;;;;;;3.10;2.80;;;;;;;;;;5100660;28;20042;-78
2021/07/02 22:02:39;;;;;;;2.97;2.25;;;;;;;;;;5105243;28;20092;-79
2021/07/02 22:05:05;;;;;;;3.80;2.60;;;;;;;;;;5083735;28;20073;-78
2021/07/02 22:07:32;;;;;;;2.83;2.30;;;;;;;;;;5104313;28;20081;-78
2021/07/02 22:09:58;;;;;;;3.72;2.70;;;;;;;;;;5113161;28;20051;-78
2021/07/02 22:12:24;;;;;;;3.38;2.88;;;;;;;;;;5101673;28;20038;-78
2021/07/02 22:14:50;;;;;;;3.45;2.60;;;;;;;;;;5093118;28;20020;-78
2021/07/02 22:17:17;;;;;;;3.42;2.60;;;;;;;;;;5089959;28;20038;-78
2021/07/02 22:19:43;;;;;;;4.75;2.67;;;;;;;;;;5114906;28;20031;-78
2021/07/02 22:22:09;;;;;;;2.90;2.50;;;;;;;;;;5113081;28;20172;-78
2021/07/02 22:24:35;;;;;;;4.88;2.60;;;;;;;;;;5113642;28;20119;-78
2021/07/02 22:27:02;;;;;;;3.42;2.55;;;;;;;;;;5107134;28;20017;-78
2021/07/02 22:29:28;;;;;;;3.83;2.35;;;;;;;;;;5076364;28;20024;-78
2021/07/02 22:31:56;;;;;;;2.90;2.33;;;;;;;;;;5094135;28;20032;-78
2021/07/02 22:34:23;;;;;;;4.60;2.08;;;;;;;;;;5094280;28;20024;-78
2021/07/02 22:36:49;;;;;;;3.13;2.40;;;;;;;;;;5075728;28;20040;-78
2021/07/02 22:39:16;;;;;;;3.00;2.70;;;;;;;;;;5094461;28;20107;-78
2021/07/02 22:41:42;;;;;;;3.00;2.60;;;;;;;;;;5092843;28;20096;-78
2021/07/02 22:44:09;;;;;;;4.18;2.53;;;;;;;;;;5078244;28;20028;-78
2021/07/02 22:46:35;;;;;;;2.70;2.35;;;;;;;;;;5097939;28;20027;-78
2021/07/02 22:49:01;;;;;;;3.30;2.55;;;;;;;;;;5097955;28;20016;-78
2021/07/02 22:51:28;;;;;;;3.17;2.55;;;;;;;;;;5079699;28;20034;-78
2021/07/02 22:53:54;;;;;;;2.67;2.38;;;;;;;;;;5079910;28;20558;-78
2021/07/02 22:56:20;;;;;;;2.40;2.20;;;;;;;;;;5079563;28;20038;-78
2021/07/02 22:58:46;;;;;;;3.22;2.28;;;;;;;;;;5097865;28;20027;-78
2021/07/02 23:01:12;;;;;;;3.05;2.75;;;;;;;;;;5079539;28;20032;-78
2021/07/02 23:03:38;;;;;;;3.05;2.35;;;;;;;;;;5079413;28;20024;-78
2021/07/02 23:06:04;;;;;;;3.17;2.20;;;;;;;;;;5097801;28;20020;-78
2021/07/02 23:08:31;;;;;;;2.42;2.05;;;;;;;;;;5097779;28;20032;-78
2021/07/02 23:10:57;;;;;;;3.50;2.30;;;;;;;;;;5097663;28;20020;-78
2021/07/02 23:13:23;;;;;;;3.28;2.22;;;;;;;;;;5097068;28;20119;-78
2021/07/02 23:15:49;;;;;;;3.42;2.33;;;;;;;;;;5097427;28;20513;-79
2021/07/02 23:18:15;;;;;;;2.42;2.20;;;;;;;;;;5097181;28;20039;-78
2021/07/02 23:20:41;;;;;;;3.38;2.25;;;;;;;;;;5079349;28;20024;-78
2021/07/02 23:23:07;;;;;;;2.70;2.10;;;;;;;;;;5097197;28;20506;-78
2021/07/02 23:25:33;;;;;;;1.90;1.70;;;;;;;;;;5097246;28;20478;-78
2021/07/02 23:27:59;;;;;;;2.65;2.22;;;;;;;;;;5096528;28;20028;-78
2021/07/02 23:30:25;;;;;;;2.58;1.95;;;;;;;;;;5097215;28;20035;-78
2021/07/02 23:32:51;;;;;;;2.28;2.05;;;;;;;;;;5096780;28;20030;-78
2021/07/02 23:35:18;;;;;;;3.03;2.30;;;;;;;;;;5097334;28;20031;-78
2021/07/02 23:37:44;;;;;;;2.13;1.92;;;;;;;;;;5097126;28;20119;-78
2021/07/02 23:40:10;;;;;;;3.50;2.20;;;;;;;;;;5097313;28;20478;-78
2021/07/02 23:42:36;;;;;;;4.28;2.30;;;;;;;;;;5096986;28;20048;-78
2021/07/02 23:45:03;;;;;;;2.85;2.50;;;;;;;;;;5096617;28;20402;-78
2021/07/02 23:47:29;;;;;;;2.72;2.45;;;;;;;;;;5096703;28;20111;-78
2021/07/02 23:49:55;;;;;;;2.50;1.85;;;;;;;;;;5097266;28;20024;-78
2021/07/02 23:52:21;;;;;;;2.08;1.90;;;;;;;;;;5096612;28;20028;-79
2021/07/02 23:54:47;;;;;;;3.00;2.30;;;;;;;;;;5078174;28;20509;-78
2021/07/02 23:57:13;;;;;;;2.72;2.20;;;;;;;;;;5078453;28;20118;-78
2021/07/02 23:59:39;;;;;;;2.42;1.70;;;;;;;;;;5096745;28;20020;-78
